• Join FlightAware (Why Join?)
  • Login
  • US Flag 
11:50AM EST


 

Airport Tracker/Info


-or-


 

Live Flight TrackerFlight Track Log ✈ SWA1707 ✈ 06-May-2013 ✈ KDAL - KABQ

Flight Track Log - Related Links

Times and Time Zones

All times are in EDT time to prevent confusion due to time zone crossing. See the SWA1707 flight status page for this flight to view local times or setup timezone preferences in your user account.

Time Position Orientation Groundspeed Altitude Reporting Facility
EDT Latitude Longitude Course Direction KTS MPH feet Rate Location/Type
10:08PM 32.8833 -96.9000 312° West 225 259 3,300  Level Dallas / Fort Worth TRACON
10:09PM 32.9333 -96.9667 312° West 225 259 6,800 3,000 Climbing Dallas / Fort Worth TRACON
10:10PM 32.9333 -97.0500 270° West 265 305 9,700 2,400 Climbing Dallas / Fort Worth TRACON
10:12PM 32.9208 -97.2131 265° West 324 373 13,300 2,400 Climbing Fort Worth Center
10:13PM 32.9086 -97.3292 263° West 340 391 16,000 2,580 Climbing Fort Worth Center
10:14PM 32.8961 -97.4506 263° West 372 428 18,500 2,100 Climbing Fort Worth Center
10:15PM 32.8833 -97.5717 263° West 372 428 20,200 2,280 Climbing Fort Worth Center
10:16PM 32.9167 -97.6831 290° West 371 427 23,100 2,400 Climbing Fort Worth Center
10:17PM 32.9600 -97.8169 291° West 389 448 25,100 1,680 Climbing Fort Worth Center
10:18PM 32.9972 -97.9286 292° West 394 453 26,500 1,560 Climbing Fort Worth Center
10:20PM 33.0814 -98.1869 291° West 418 481 29,800 1,800 Climbing Fort Worth Center
10:22PM 33.1631 -98.4358 291° West 404 465 33,700 1,860 Climbing Fort Worth Center
10:23PM 33.2058 -98.5681 291° West 404 465 35,500 1,140 Climbing Fort Worth Center
10:24PM 33.2464 -98.6853 293° West 394 453 36,000 240 Climbing Fort Worth Center
10:25PM 33.2828 -98.8025 290° West 388 447 36,000  Level Fort Worth Center
10:26PM 33.3211 -98.9200 291° West 383 441 36,000  Level Fort Worth Center
10:27PM 33.3572 -99.0350 291° West 383 441 36,000  Level Fort Worth Center
10:28PM 33.3953 -99.1550 291° West 383 441 36,000  Level Fort Worth Center
10:30PM 33.4731 -99.3931 291° West 383 441 36,000  Level Fort Worth Center
10:31PM 33.5108 -99.5161 290° West 388 447 36,000  Level Fort Worth Center
10:32PM 33.5461 -99.6367 289° West 388 447 36,000  Level Fort Worth Center
10:33PM 33.5858 -99.7597 291° West 388 447 36,000  Level Fort Worth Center
10:34PM 33.6231 -99.8781 291° West 388 447 36,000  Level Fort Worth Center
10:35PM 33.6622 -100.0064 290° West 394 453 36,000  Level Fort Worth Center
10:36PM 33.6994 -100.1272 290° West 394 453 36,000  Level Fort Worth Center
10:37PM 33.7364 -100.2483 290° West 389 448 36,000  Level Fort Worth Center
10:38PM 33.7711 -100.3669 289° West 389 448 36,000  Level Fort Worth Center
10:39PM 33.8100 -100.4858 292° West 389 448 36,000  Level Fort Worth Center
10:40PM 33.8447 -100.6044 289° West 389 448 36,000  Level Fort Worth Center
10:41PM 33.8792 -100.7208 290° West 389 448 36,000  Level Fort Worth Center
10:42PM 33.9156 -100.8372 291° West 384 442 36,000  Level Fort Worth Center
10:43PM 33.9519 -100.9539 291° West 378 435 36,000  Level Fort Worth Center
10:44PM 33.9861 -101.0756 289° West 378 435 36,000  Level Fort Worth Center
10:45PM 34.0186 -101.1797 291° West 383 441 36,000  Level Fort Worth Center
10:46PM 34.0561 -101.3142 289° West 377 434 36,000  Level Fort Worth Center
10:47PM 34.0883 -101.4208 290° West 377 434 36,000  Level Fort Worth Center
10:48PM 34.1278 -101.5506 290° West 377 434 36,000  Level Fort Worth Center
10:49PM 34.1761 -101.6633 297° West 377 434 36,000  Level Fort Worth Center
10:50PM 34.2458 -101.7597 311° West 388 447 36,000  Level Fort Worth Center
10:51PM 34.3069 -101.8608 306° West 388 447 36,000  Level Fort Worth Center
10:53PM 34.3539 -102.1053 283° West 375 432 36,000  Level Albuquerque Center
10:54PM 34.3781 -102.2269 284° West 371 427 36,000  Level Albuquerque Center
10:56PM 34.4258 -102.4742 283° West 376 433 36,000  Level Albuquerque Center
10:57PM 34.4486 -102.5969 283° West 375 432 36,000  Level Albuquerque Center
10:58PM 34.4733 -102.7211 284° West 378 435 36,000  Level Albuquerque Center
11:00PM 34.5133 -102.9842 281° West 379 436 36,000 -300 Level Albuquerque Center
11:01PM 34.5289 -103.1125 278° West 381 438 35,100 -1,020 Descending Albuquerque Center
11:02PM 34.5431 -103.2333 278° West 366 421 34,000 -540 Descending Albuquerque Center
11:03PM 34.5575 -103.3489 279° West 348 400 34,000  Level Albuquerque Center
11:04PM 34.5719 -103.4661 279° West 348 400 34,000  Level Albuquerque Center
11:05PM 34.5850 -103.5847 278° West 350 403 34,000  Level Albuquerque Center
11:06PM 34.6125 -103.6997 286° West 353 406 34,000  Level Albuquerque Center
11:07PM 34.6419 -103.8164 287° West 355 409 34,000  Level Albuquerque Center
11:08PM 34.6706 -103.9342 286° West 358 412 34,000  Level Albuquerque Center
11:09PM 34.6986 -104.0525 286° West 360 414 34,000  Level Albuquerque Center
11:10PM 34.7289 -104.1722 287° West 363 418 34,000  Level Albuquerque Center
11:11PM 34.7572 -104.2917 286° West 364 419 34,000  Level Albuquerque Center
11:12PM 34.7856 -104.4119 286° West 364 419 34,000  Level Albuquerque Center
11:13PM 34.8150 -104.5333 286° West 367 422 34,000  Level Albuquerque Center
11:14PM 34.8403 -104.6561 284° West 369 425 34,000  Level Albuquerque Center
11:15PM 34.8497 -104.7833 275° West 371 427 34,000  Level Albuquerque Center
11:16PM 34.8628 -104.9097 277° West 372 428 34,000 -240 Level Albuquerque Center
11:17PM 34.8739 -105.0375 276° West 374 430 33,600 -1,380 Descending Albuquerque Center
11:18PM 34.8850 -105.1650 276° West 375 432 31,200 -2,520 Descending Albuquerque Center
11:19PM 34.8972 -105.3094 276° West 367 422 28,500 -2,460 Descending Albuquerque Center
11:20PM 34.9100 -105.4247 278° West 347 399 26,200 -1,740 Descending Albuquerque Center
11:21PM 34.9208 -105.5367 277° West 335 386 25,000 -780 Descending Albuquerque Center
11:22PM 34.9281 -105.6428 275° West 318 366 24,700 -1,260 Descending Albuquerque Center
11:23PM 34.9344 -105.7414 275° West 346 398 22,700 -2,400 Descending Albuquerque Center
11:24PM 34.9425 -105.8561 275° West 343 395 20,400 -2,160 Descending Albuquerque Center
11:25PM 34.9511 -105.9628 276° West 321 369 18,400 -1,380 Descending Albuquerque Center
11:26PM 34.9567 -106.0650 274° West 299 344 17,700 -1,380 Descending Albuquerque Center
11:27PM 34.9569 -106.1739 270° West 302 348 15,700 -1,800 Descending Albuquerque Center
11:27PM 34.9575 -106.1842 274° West 304 350 15,500 -1,740 Descending Albuquerque Center
11:28PM 34.9592 -106.2822 271° West 295 339 13,800 -1,800 Descending Albuquerque Center
11:29PM 34.9608 -106.3806 271° West 290 334 11,900 -1,740 Descending Albuquerque Center
11:30PM 34.9561 -106.4697 266° West 285 328 10,500 -1,380 Descending Albuquerque Center
11:30PM 34.9567 -106.4769 275° West 287 330 10,500 -540 Level Albuquerque Center
11:31PM 34.9400 -106.5489 254° West 244 281 10,000 -600 Descending Albuquerque Center
11:31PM 34.9350 -106.5533 216° Southwest 270 311 9,900 -1,200 Descending Albuquerque Center
11:32PM 34.9008 -106.6058 232° Southwest 214 246 8,800 -1,500 Descending Albuquerque Center
11:32PM 34.8997 -106.6281 267° West 238 274 8,400 -1,320 Descending Albuquerque Center
11:33PM 34.9228 -106.6700 304° West 205 236 7,500 -1,020 Descending Albuquerque Center
11:33PM 34.9344 -106.6825 319° Northwest 217 250 7,400 -720 Descending Albuquerque Center
11:34PM 34.9664 -106.6872 353° North 165 190 6,800 -900 Descending Albuquerque Center
11:34PM 34.9789 -106.6800 25° Northeast 187 215 6,500 -900 Descending Albuquerque Center
11:35PM 35.0014 -106.6550 42° Northeast 155 178 5,900 -900 Descending Albuquerque Center
11:35PM 35.0111 -106.6442 42° Northeast 168 193 5,600 -480 Descending Albuquerque Center
11:36PM 35.0403 -106.6086 45° Northeast 164 189 5,300 -300 Descending Albuquerque Center